Flight Track Log - Related Links

Times and Time Zones

All times are in EST time to prevent confusion due to time zone crossing. See the UCA3597 flight status page for this flight to view local times or setup timezone preferences in your user account.

Time Position Orientation Groundspeed Altitude Reporting Facility
EST Latitude Longitude Course Direction KTS MPH feet Rate Location/Type
Sat 05:50:00 PM 39.3233 -77.2969 19° North  Level Estimated
Sat 05:51:00 PM 39.3769 -77.2735 19° North  Level Estimated
Sat 05:52:00 PM 39.4306 -77.2500 19° North  Level Estimated
Sat 05:53:00 PM 39.4842 -77.2265 19° North  Level Estimated
Sat 05:54:00 PM 39.5379 -77.2030 19° North  Level Estimated
Sat 05:55:00 PM 39.5916 -77.1794 19° North  Level Estimated
Sat 05:56:00 PM 39.6452 -77.1558 19° North  Level Estimated
Sat 05:57:00 PM 39.6988 -77.1321 19° North  Level Estimated
Sat 05:58:00 PM 39.7525 -77.1085 19° North  Level Estimated
Sat 05:59:00 PM 39.8061 -77.0847 19° North  Level Estimated
Sat 06:00:00 PM 39.8597 -77.0610 19° North  Level Estimated
Sat 06:01:00 PM 39.9134 -77.0372 19° North  Level Estimated
Sat 06:02:00 PM 39.9670 -77.0133 19° North  Level Estimated
Sat 06:03:00 PM 40.0206 -76.9895 19° North  Level Estimated
Sat 06:04:00 PM 40.0742 -76.9656 19° North  Level Estimated
Sat 06:05:00 PM 40.1278 -76.9416 19° North  Level Estimated
Sat 06:06:00 PM 40.1814 -76.9176 19° North  Level Estimated
Sat 06:07:00 PM 40.2350 -76.8936 19° North  Level Estimated
Sat 06:08:00 PM 40.2886 -76.8695 19° North  Level Estimated
Sat 06:09:00 PM 40.3422 -76.8454 19° North  Level Estimated
Sat 06:10:00 PM 40.3957 -76.8213 19° North  Level Estimated
Sat 06:11:00 PM 40.4493 -76.7971 19° North  Level Estimated
Sat 06:12:00 PM 40.5029 -76.7729 19° North  Level Estimated
Sat 06:13:00 PM 40.5564 -76.7486 19° North  Level Estimated
Sat 06:14:00 PM 40.6100 -76.7243 19° North  Level Estimated
Sat 06:15:00 PM 40.6636 -76.7000 19° North  Level Estimated
Sat 06:16:00 PM 40.7171 -76.6757 19° North  Level Estimated
Sat 06:17:00 PM 40.7706 -76.6512 19° North  Level Estimated
Sat 06:18:00 PM 40.8242 -76.6268 19° North  Level Estimated
Sat 06:19:00 PM 40.8777 -76.6023 19° North  Level Estimated
Sat 06:20:00 PM 40.9313 -76.5778 19° North  Level Estimated
Sat 06:21:00 PM 40.9848 -76.5532 19° North  Level Estimated
Sat 06:22:00 PM 41.0383 -76.5286 19° North  Level Estimated
Sat 06:23:00 PM 41.0918 -76.5039 19° North  Level Estimated
Sat 06:24:00 PM 41.1453 -76.4792 19° North  Level Estimated
Sat 06:25:00 PM 41.1988 -76.4545 19° North  Level Estimated
Sat 06:26:00 PM 41.2523 -76.4297 19° North  Level Estimated
Sat 06:27:00 PM 41.3058 -76.4049 19° North  Level Estimated
Sat 06:28:00 PM 41.3593 -76.3801 19° North  Level Estimated
Sat 06:29:00 PM 41.4128 -76.3552 19° North  Level Estimated
Sat 06:30:00 PM 41.4662 -76.3303 19° North  Level Estimated
Sat 06:31:00 PM 41.5197 -76.3053 19° North  Level Estimated
Sat 06:32:00 PM 41.5732 -76.2803 19° North  Level Estimated
Sat 06:33:00 PM 41.6266 -76.2552 19° North  Level Estimated
Sat 06:34:00 PM 41.6801 -76.2301 19° North  Level Estimated
Sat 06:35:00 PM 41.7335 -76.2050 19° North  Level Estimated
Sat 06:36:00 PM 41.7869 -76.1798 19° North  Level Estimated
Sat 06:37:00 PM 41.8404 -76.1546 19° North  Level Estimated
Sat 06:38:00 PM 41.8938 -76.1293 19° North  Level Estimated
Sat 06:39:00 PM 41.9472 -76.1040 19° North  Level Estimated
Sat 06:40:00 PM 42.0006 -76.0787 19° North  Level Estimated
Sat 06:41:00 PM 42.0541 -76.0533 19° North  Level Estimated
Sat 06:42:00 PM 42.1075 -76.0278 19° North  Level Estimated
Sat 06:43:00 PM 42.1609 -76.0023 19° North  Level Estimated
Sat 06:44:00 PM 42.2084 -75.9796 19° North  Level Estimated
Sat 06:45:00 PM 42.2084 -75.9796 35° Northeast  Level Estimated
Sat 06:46:00 PM 42.2084 -75.9796 35° Northeast  Level Estimated
Sat 06:47:00 PM 42.2084 -75.9796 35° Northeast  Level Estimated
Sat 06:48:00 PM 42.2084 -75.9796 35° Northeast  Level Estimated
Sat 06:49:00 PM 42.2084 -75.9796 35° Northeast  Level Estimated
Sat 06:50:00 PM 42.2084 -75.9796 35° Northeast  Level Estimated
Sat 06:51:00 PM 42.2084 -75.9796 35° Northeast  Level Estimated
Sat 06:52:00 PM 42.2084 -75.9796 35° Northeast  Level Estimated

Login

Don't have an account? Register now (free) for customized features, flight alerts, and more!